sensor_id;sensor_type;location;lat;lon;timestamp;P1;durP1;ratioP1;P2;durP2;ratioP2
73850;SDS011;62190;51.548;5.688;2023-05-07T00:00:35;35.63;;;20.32;;
73850;SDS011;62190;51.548;5.688;2023-05-07T00:03:03;36.28;;;21.15;;
73850;SDS011;62190;51.548;5.688;2023-05-07T00:05:32;47.67;;;21.57;;
73850;SDS011;62190;51.548;5.688;2023-05-07T00:07:59;42.65;;;23.77;;
73850;SDS011;62190;51.548;5.688;2023-05-07T00:10:27;64.67;;;25.92;;
73850;SDS011;62190;51.548;5.688;2023-05-07T00:12:58;50.03;;;27.13;;
73850;SDS011;62190;51.548;5.688;2023-05-07T00:15:25;58.15;;;25.57;;
73850;SDS011;62190;51.548;5.688;2023-05-07T00:17:55;51.73;;;26.07;;
73850;SDS011;62190;51.548;5.688;2023-05-07T00:20:24;44.35;;;21.93;;
73850;SDS011;62190;51.548;5.688;2023-05-07T00:22:51;96.42;;;31.70;;
73850;SDS011;62190;51.548;5.688;2023-05-07T00:25:20;50.43;;;25.72;;
73850;SDS011;62190;51.548;5.688;2023-05-07T00:27:47;51.77;;;28.52;;
73850;SDS011;62190;51.548;5.688;2023-05-07T00:30:15;57.88;;;24.20;;
73850;SDS011;62190;51.548;5.688;2023-05-07T00:32:45;34.60;;;23.10;;
73850;SDS011;62190;51.548;5.688;2023-05-07T00:35:16;56.60;;;26.07;;
73850;SDS011;62190;51.548;5.688;2023-05-07T00:37:44;60.45;;;27.95;;
73850;SDS011;62190;51.548;5.688;2023-05-07T00:40:11;112.08;;;35.35;;
73850;SDS011;62190;51.548;5.688;2023-05-07T00:42:40;54.98;;;29.80;;
73850;SDS011;62190;51.548;5.688;2023-05-07T00:45:07;77.22;;;30.97;;
73850;SDS011;62190;51.548;5.688;2023-05-07T00:47:36;67.30;;;29.92;;
73850;SDS011;62190;51.548;5.688;2023-05-07T00:50:07;54.25;;;29.77;;
73850;SDS011;62190;51.548;5.688;2023-05-07T00:52:36;42.38;;;26.15;;
73850;SDS011;62190;51.548;5.688;2023-05-07T00:55:07;50.67;;;29.70;;
73850;SDS011;62190;51.548;5.688;2023-05-07T00:57:40;57.23;;;29.48;;
73850;SDS011;62190;51.548;5.688;2023-05-07T01:00:09;60.78;;;30.68;;
73850;SDS011;62190;51.548;5.688;2023-05-07T01:02:39;49.55;;;28.98;;
73850;SDS011;62190;51.548;5.688;2023-05-07T01:05:07;69.17;;;31.48;;
73850;SDS011;62190;51.548;5.688;2023-05-07T01:07:38;56.90;;;32.10;;
73850;SDS011;62190;51.548;5.688;2023-05-07T01:10:09;56.53;;;30.90;;
73850;SDS011;62190;51.548;5.688;2023-05-07T01:12:41;82.92;;;34.67;;
73850;SDS011;62190;51.548;5.688;2023-05-07T01:15:09;43.85;;;27.80;;
73850;SDS011;62190;51.548;5.688;2023-05-07T01:17:40;70.08;;;33.48;;
73850;SDS011;62190;51.548;5.688;2023-05-07T01:20:08;62.70;;;31.57;;
73850;SDS011;62190;51.548;5.688;2023-05-07T01:22:40;70.50;;;34.67;;
73850;SDS011;62190;51.548;5.688;2023-05-07T01:25:07;93.10;;;36.88;;
73850;SDS011;62190;51.548;5.688;2023-05-07T01:27:37;85.70;;;36.65;;
73850;SDS011;62190;51.548;5.688;2023-05-07T01:30:08;83.97;;;35.08;;
73850;SDS011;62190;51.548;5.688;2023-05-07T01:32:43;70.70;;;36.45;;
73850;SDS011;62190;51.548;5.688;2023-05-07T01:35:24;69.20;;;34.73;;
73850;SDS011;62190;51.548;5.688;2023-05-07T01:37:48;65.80;;;34.92;;
73850;SDS011;62190;51.548;5.688;2023-05-07T01:40:18;57.13;;;33.67;;
73850;SDS011;62190;51.548;5.688;2023-05-07T01:42:48;86.17;;;35.90;;
73850;SDS011;62190;51.548;5.688;2023-05-07T01:45:16;73.40;;;35.73;;
73850;SDS011;62190;51.548;5.688;2023-05-07T01:47:45;47.15;;;31.37;;
73850;SDS011;62190;51.548;5.688;2023-05-07T01:50:12;71.22;;;33.20;;
73850;SDS011;62190;51.548;5.688;2023-05-07T01:52:43;54.67;;;31.80;;
73850;SDS011;62190;51.548;5.688;2023-05-07T01:55:11;82.82;;;39.38;;
73850;SDS011;62190;51.548;5.688;2023-05-07T01:57:40;63.85;;;36.88;;
73850;SDS011;62190;51.548;5.688;2023-05-07T02:00:09;75.10;;;36.90;;
73850;SDS011;62190;51.548;5.688;2023-05-07T02:02:36;79.92;;;37.50;;
73850;SDS011;62190;51.548;5.688;2023-05-07T02:05:04;96.15;;;39.18;;
73850;SDS011;62190;51.548;5.688;2023-05-07T02:07:32;76.45;;;37.70;;
73850;SDS011;62190;51.548;5.688;2023-05-07T02:09:59;70.52;;;35.50;;
73850;SDS011;62190;51.548;5.688;2023-05-07T02:12:26;48.60;;;32.98;;
73850;SDS011;62190;51.548;5.688;2023-05-07T02:14:57;59.05;;;34.55;;
73850;SDS011;62190;51.548;5.688;2023-05-07T02:17:25;54.10;;;34.05;;
73850;SDS011;62190;51.548;5.688;2023-05-07T02:19:53;63.10;;;37.05;;
73850;SDS011;62190;51.548;5.688;2023-05-07T02:22:20;64.15;;;34.55;;
73850;SDS011;62190;51.548;5.688;2023-05-07T02:24:47;50.38;;;31.65;;
73850;SDS011;62190;51.548;5.688;2023-05-07T02:27:15;49.95;;;31.90;;
73850;SDS011;62190;51.548;5.688;2023-05-07T02:29:42;52.90;;;32.95;;
73850;SDS011;62190;51.548;5.688;2023-05-07T02:32:10;46.68;;;32.93;;
73850;SDS011;62190;51.548;5.688;2023-05-07T02:34:38;76.07;;;33.70;;
73850;SDS011;62190;51.548;5.688;2023-05-07T02:37:05;66.37;;;34.85;;
73850;SDS011;62190;51.548;5.688;2023-05-07T02:39:32;88.47;;;38.55;;
73850;SDS011;62190;51.548;5.688;2023-05-07T02:42:01;106.17;;;37.53;;
73850;SDS011;62190;51.548;5.688;2023-05-07T02:44:28;107.83;;;42.55;;
73850;SDS011;62190;51.548;5.688;2023-05-07T02:46:56;106.50;;;40.58;;
73850;SDS011;62190;51.548;5.688;2023-05-07T02:49:25;115.30;;;44.42;;
73850;SDS011;62190;51.548;5.688;2023-05-07T02:51:54;111.52;;;42.90;;
73850;SDS011;62190;51.548;5.688;2023-05-07T02:54:21;134.55;;;49.95;;
73850;SDS011;62190;51.548;5.688;2023-05-07T02:56:51;72.25;;;36.98;;
73850;SDS011;62190;51.548;5.688;2023-05-07T02:59:19;94.62;;;44.20;;
73850;SDS011;62190;51.548;5.688;2023-05-07T03:01:48;127.58;;;44.18;;
73850;SDS011;62190;51.548;5.688;2023-05-07T03:04:18;135.72;;;52.15;;
73850;SDS011;62190;51.548;5.688;2023-05-07T03:06:46;82.97;;;41.00;;
73850;SDS011;62190;51.548;5.688;2023-05-07T03:09:13;104.23;;;46.88;;
73850;SDS011;62190;51.548;5.688;2023-05-07T03:11:42;134.30;;;50.38;;
73850;SDS011;62190;51.548;5.688;2023-05-07T03:14:10;119.40;;;48.52;;
73850;SDS011;62190;51.548;5.688;2023-05-07T03:16:39;121.22;;;50.23;;
73850;SDS011;62190;51.548;5.688;2023-05-07T03:19:08;151.70;;;56.55;;
73850;SDS011;62190;51.548;5.688;2023-05-07T03:21:35;137.20;;;54.13;;
73850;SDS011;62190;51.548;5.688;2023-05-07T03:24:02;143.55;;;51.80;;
73850;SDS011;62190;51.548;5.688;2023-05-07T03:26:30;156.55;;;58.73;;
73850;SDS011;62190;51.548;5.688;2023-05-07T03:28:57;127.10;;;56.50;;
73850;SDS011;62190;51.548;5.688;2023-05-07T03:31:24;155.12;;;60.00;;
73850;SDS011;62190;51.548;5.688;2023-05-07T03:33:56;202.95;;;65.22;;
73850;SDS011;62190;51.548;5.688;2023-05-07T03:36:24;145.32;;;57.23;;
73850;SDS011;62190;51.548;5.688;2023-05-07T03:38:54;165.90;;;65.67;;
73850;SDS011;62190;51.548;5.688;2023-05-07T03:41:23;105.17;;;46.80;;
73850;SDS011;62190;51.548;5.688;2023-05-07T03:43:54;174.12;;;64.22;;
73850;SDS011;62190;51.548;5.688;2023-05-07T03:46:22;117.22;;;55.40;;
73850;SDS011;62190;51.548;5.688;2023-05-07T03:48:51;117.25;;;54.03;;
73850;SDS011;62190;51.548;5.688;2023-05-07T03:51:19;113.77;;;54.60;;
73850;SDS011;62190;51.548;5.688;2023-05-07T03:53:46;100.67;;;53.95;;
73850;SDS011;62190;51.548;5.688;2023-05-07T03:56:18;145.15;;;54.00;;
73850;SDS011;62190;51.548;5.688;2023-05-07T03:58:47;122.90;;;56.75;;
73850;SDS011;62190;51.548;5.688;2023-05-07T04:01:14;173.28;;;65.67;;
73850;SDS011;62190;51.548;5.688;2023-05-07T04:03:41;145.35;;;60.55;;
73850;SDS011;62190;51.548;5.688;2023-05-07T04:06:09;137.80;;;54.93;;
73850;SDS011;62190;51.548;5.688;2023-05-07T04:08:37;113.52;;;54.25;;
73850;SDS011;62190;51.548;5.688;2023-05-07T04:11:05;99.97;;;52.10;;
73850;SDS011;62190;51.548;5.688;2023-05-07T04:13:32;126.90;;;58.95;;
73850;SDS011;62190;51.548;5.688;2023-05-07T04:16:00;116.82;;;57.70;;
73850;SDS011;62190;51.548;5.688;2023-05-07T04:18:29;87.40;;;49.08;;
73850;SDS011;62190;51.548;5.688;2023-05-07T04:20:56;139.52;;;61.90;;
73850;SDS011;62190;51.548;5.688;2023-05-07T04:23:25;99.40;;;52.38;;
73850;SDS011;62190;51.548;5.688;2023-05-07T04:25:53;132.22;;;59.27;;
73850;SDS011;62190;51.548;5.688;2023-05-07T04:28:22;135.90;;;59.88;;
73850;SDS011;62190;51.548;5.688;2023-05-07T04:30:50;116.97;;;51.15;;
73850;SDS011;62190;51.548;5.688;2023-05-07T04:33:18;118.17;;;57.45;;
73850;SDS011;62190;51.548;5.688;2023-05-07T04:35:47;106.95;;;55.03;;
73850;SDS011;62190;51.548;5.688;2023-05-07T04:38:15;139.62;;;57.48;;
73850;SDS011;62190;51.548;5.688;2023-05-07T04:40:44;117.67;;;57.13;;
73850;SDS011;62190;51.548;5.688;2023-05-07T04:43:13;121.33;;;58.70;;
73850;SDS011;62190;51.548;5.688;2023-05-07T04:45:45;170.47;;;63.50;;
73850;SDS011;62190;51.548;5.688;2023-05-07T04:48:12;117.47;;;55.85;;
73850;SDS011;62190;51.548;5.688;2023-05-07T04:50:41;87.35;;;51.73;;
73850;SDS011;62190;51.548;5.688;2023-05-07T04:53:08;117.72;;;55.88;;
73850;SDS011;62190;51.548;5.688;2023-05-07T04:55:38;122.40;;;56.13;;
73850;SDS011;62190;51.548;5.688;2023-05-07T04:58:06;100.18;;;51.88;;
73850;SDS011;62190;51.548;5.688;2023-05-07T05:00:35;86.30;;;48.68;;
73850;SDS011;62190;51.548;5.688;2023-05-07T05:03:10;82.90;;;49.10;;
73850;SDS011;62190;51.548;5.688;2023-05-07T05:05:40;81.72;;;50.80;;
73850;SDS011;62190;51.548;5.688;2023-05-07T05:08:07;88.47;;;51.70;;
73850;SDS011;62190;51.548;5.688;2023-05-07T05:10:37;98.27;;;52.05;;
73850;SDS011;62190;51.548;5.688;2023-05-07T05:13:06;77.00;;;48.75;;
73850;SDS011;62190;51.548;5.688;2023-05-07T05:15:35;76.10;;;46.37;;
73850;SDS011;62190;51.548;5.688;2023-05-07T05:18:02;74.05;;;47.48;;
73850;SDS011;62190;51.548;5.688;2023-05-07T05:20:30;96.15;;;50.20;;
73850;SDS011;62190;51.548;5.688;2023-05-07T05:22:59;71.07;;;47.30;;
73850;SDS011;62190;51.548;5.688;2023-05-07T05:25:26;80.30;;;48.83;;
73850;SDS011;62190;51.548;5.688;2023-05-07T05:27:54;86.28;;;51.85;;
73850;SDS011;62190;51.548;5.688;2023-05-07T05:30:24;82.60;;;50.28;;
73850;SDS011;62190;51.548;5.688;2023-05-07T05:32:53;88.90;;;50.85;;
73850;SDS011;62190;51.548;5.688;2023-05-07T05:35:21;79.32;;;48.63;;
73850;SDS011;62190;51.548;5.688;2023-05-07T05:37:51;81.75;;;45.98;;
73850;SDS011;62190;51.548;5.688;2023-05-07T05:40:22;72.82;;;47.35;;
73850;SDS011;62190;51.548;5.688;2023-05-07T05:42:49;71.75;;;46.70;;
73850;SDS011;62190;51.548;5.688;2023-05-07T05:45:20;63.35;;;44.00;;
73850;SDS011;62190;51.548;5.688;2023-05-07T05:47:47;79.47;;;48.23;;
73850;SDS011;62190;51.548;5.688;2023-05-07T05:50:14;64.62;;;45.17;;
73850;SDS011;62190;51.548;5.688;2023-05-07T05:52:41;59.58;;;41.13;;
73850;SDS011;62190;51.548;5.688;2023-05-07T05:55:09;60.35;;;42.45;;
73850;SDS011;62190;51.548;5.688;2023-05-07T05:57:37;61.50;;;42.45;;
73850;SDS011;62190;51.548;5.688;2023-05-07T06:00:06;62.90;;;42.75;;
73850;SDS011;62190;51.548;5.688;2023-05-07T06:02:33;63.15;;;41.13;;
73850;SDS011;62190;51.548;5.688;2023-05-07T06:05:01;47.95;;;37.98;;
73850;SDS011;62190;51.548;5.688;2023-05-07T06:07:28;51.70;;;38.63;;
73850;SDS011;62190;51.548;5.688;2023-05-07T06:09:55;48.23;;;36.77;;
73850;SDS011;62190;51.548;5.688;2023-05-07T06:12:23;52.35;;;38.28;;
73850;SDS011;62190;51.548;5.688;2023-05-07T06:14:50;51.10;;;39.00;;
73850;SDS011;62190;51.548;5.688;2023-05-07T06:17:17;53.58;;;39.85;;
73850;SDS011;62190;51.548;5.688;2023-05-07T06:19:45;51.18;;;38.15;;
73850;SDS011;62190;51.548;5.688;2023-05-07T06:22:12;53.83;;;39.50;;
73850;SDS011;62190;51.548;5.688;2023-05-07T06:24:39;51.92;;;38.98;;
73850;SDS011;62190;51.548;5.688;2023-05-07T06:27:07;46.20;;;35.95;;
73850;SDS011;62190;51.548;5.688;2023-05-07T06:29:34;50.17;;;37.85;;
73850;SDS011;62190;51.548;5.688;2023-05-07T06:32:08;39.63;;;32.23;;
73850;SDS011;62190;51.548;5.688;2023-05-07T06:34:36;42.35;;;32.67;;
73850;SDS011;62190;51.548;5.688;2023-05-07T06:37:04;41.20;;;31.77;;
73850;SDS011;62190;51.548;5.688;2023-05-07T06:39:31;44.98;;;33.00;;
73850;SDS011;62190;51.548;5.688;2023-05-07T06:41:59;43.10;;;32.30;;
73850;SDS011;62190;51.548;5.688;2023-05-07T06:44:28;42.00;;;32.73;;
73850;SDS011;62190;51.548;5.688;2023-05-07T06:46:55;41.68;;;32.98;;
73850;SDS011;62190;51.548;5.688;2023-05-07T06:49:23;39.73;;;31.93;;
73850;SDS011;62190;51.548;5.688;2023-05-07T06:51:50;37.95;;;30.70;;
73850;SDS011;62190;51.548;5.688;2023-05-07T06:54:18;39.00;;;29.63;;
73850;SDS011;62190;51.548;5.688;2023-05-07T06:56:45;37.55;;;30.25;;
73850;SDS011;62190;51.548;5.688;2023-05-07T06:59:13;35.48;;;28.60;;
73850;SDS011;62190;51.548;5.688;2023-05-07T07:01:40;36.83;;;29.00;;
73850;SDS011;62190;51.548;5.688;2023-05-07T07:04:08;32.63;;;26.60;;
73850;SDS011;62190;51.548;5.688;2023-05-07T07:06:35;41.18;;;30.08;;
73850;SDS011;62190;51.548;5.688;2023-05-07T07:09:02;37.25;;;28.52;;
73850;SDS011;62190;51.548;5.688;2023-05-07T07:11:30;34.38;;;28.35;;
73850;SDS011;62190;51.548;5.688;2023-05-07T07:13:57;34.43;;;28.77;;
73850;SDS011;62190;51.548;5.688;2023-05-07T07:16:24;31.50;;;27.27;;
73850;SDS011;62190;51.548;5.688;2023-05-07T07:18:51;29.65;;;25.95;;
73850;SDS011;62190;51.548;5.688;2023-05-07T07:21:19;29.35;;;25.95;;
73850;SDS011;62190;51.548;5.688;2023-05-07T07:23:46;34.03;;;26.90;;
73850;SDS011;62190;51.548;5.688;2023-05-07T07:26:15;31.93;;;26.07;;
73850;SDS011;62190;51.548;5.688;2023-05-07T07:28:43;33.60;;;27.50;;
73850;SDS011;62190;51.548;5.688;2023-05-07T07:31:10;32.65;;;26.25;;
73850;SDS011;62190;51.548;5.688;2023-05-07T07:33:39;35.78;;;28.32;;
73850;SDS011;62190;51.548;5.688;2023-05-07T07:36:06;32.33;;;25.70;;
73850;SDS011;62190;51.548;5.688;2023-05-07T07:38:34;33.15;;;25.60;;
73850;SDS011;62190;51.548;5.688;2023-05-07T07:41:01;28.50;;;25.32;;
73850;SDS011;62190;51.548;5.688;2023-05-07T07:43:29;32.15;;;26.48;;
73850;SDS011;62190;51.548;5.688;2023-05-07T07:45:56;34.80;;;27.55;;
73850;SDS011;62190;51.548;5.688;2023-05-07T07:48:23;31.60;;;26.10;;
73850;SDS011;62190;51.548;5.688;2023-05-07T07:50:51;29.40;;;23.50;;
73850;SDS011;62190;51.548;5.688;2023-05-07T07:53:18;31.55;;;25.75;;
73850;SDS011;62190;51.548;5.688;2023-05-07T07:55:45;34.25;;;25.32;;
73850;SDS011;62190;51.548;5.688;2023-05-07T07:58:13;28.80;;;24.32;;
73850;SDS011;62190;51.548;5.688;2023-05-07T08:00:40;29.05;;;24.50;;
73850;SDS011;62190;51.548;5.688;2023-05-07T08:03:10;28.40;;;22.70;;
73850;SDS011;62190;51.548;5.688;2023-05-07T08:05:38;25.00;;;20.62;;
73850;SDS011;62190;51.548;5.688;2023-05-07T08:08:05;26.55;;;21.00;;
73850;SDS011;62190;51.548;5.688;2023-05-07T08:10:33;25.45;;;21.95;;
73850;SDS011;62190;51.548;5.688;2023-05-07T08:13:04;27.67;;;23.50;;
73850;SDS011;62190;51.548;5.688;2023-05-07T08:15:32;26.90;;;22.58;;
73850;SDS011;62190;51.548;5.688;2023-05-07T08:17:59;23.35;;;20.95;;
73850;SDS011;62190;51.548;5.688;2023-05-07T08:20:28;23.85;;;20.08;;
73850;SDS011;62190;51.548;5.688;2023-05-07T08:22:55;22.00;;;18.80;;
73850;SDS011;62190;51.548;5.688;2023-05-07T08:25:23;19.12;;;17.17;;
73850;SDS011;62190;51.548;5.688;2023-05-07T08:27:50;19.75;;;16.60;;
73850;SDS011;62190;51.548;5.688;2023-05-07T08:30:17;23.30;;;16.55;;
73850;SDS011;62190;51.548;5.688;2023-05-07T08:32:45;17.50;;;14.90;;
73850;SDS011;62190;51.548;5.688;2023-05-07T08:35:12;21.23;;;16.73;;
73850;SDS011;62190;51.548;5.688;2023-05-07T08:37:39;17.37;;;14.53;;
73850;SDS011;62190;51.548;5.688;2023-05-07T08:40:07;14.68;;;13.18;;
73850;SDS011;62190;51.548;5.688;2023-05-07T08:42:37;16.73;;;13.70;;
73850;SDS011;62190;51.548;5.688;2023-05-07T08:45:05;15.83;;;12.88;;
73850;SDS011;62190;51.548;5.688;2023-05-07T08:47:40;16.20;;;11.65;;
73850;SDS011;62190;51.548;5.688;2023-05-07T08:50:11;14.53;;;12.90;;
73850;SDS011;62190;51.548;5.688;2023-05-07T08:52:41;12.75;;;11.35;;
73850;SDS011;62190;51.548;5.688;2023-05-07T08:55:09;15.18;;;12.55;;
73850;SDS011;62190;51.548;5.688;2023-05-07T08:57:36;14.40;;;11.25;;
73850;SDS011;62190;51.548;5.688;2023-05-07T09:00:04;12.45;;;11.05;;
73850;SDS011;62190;51.548;5.688;2023-05-07T09:02:33;10.88;;;9.78;;
73850;SDS011;62190;51.548;5.688;2023-05-07T09:05:03;13.93;;;11.85;;
73850;SDS011;62190;51.548;5.688;2023-05-07T09:07:31;13.03;;;11.35;;
73850;SDS011;62190;51.548;5.688;2023-05-07T09:09:58;13.80;;;12.37;;
73850;SDS011;62190;51.548;5.688;2023-05-07T09:12:30;13.28;;;11.97;;
73850;SDS011;62190;51.548;5.688;2023-05-07T09:14:58;17.27;;;13.03;;
73850;SDS011;62190;51.548;5.688;2023-05-07T09:17:26;14.68;;;12.07;;
73850;SDS011;62190;51.548;5.688;2023-05-07T09:19:54;13.62;;;12.10;;
73850;SDS011;62190;51.548;5.688;2023-05-07T09:22:22;13.62;;;12.05;;
73850;SDS011;62190;51.548;5.688;2023-05-07T09:24:49;17.27;;;12.33;;
73850;SDS011;62190;51.548;5.688;2023-05-07T09:27:17;15.13;;;11.78;;
73850;SDS011;62190;51.548;5.688;2023-05-07T09:29:45;14.38;;;11.85;;
73850;SDS011;62190;51.548;5.688;2023-05-07T09:32:12;13.05;;;11.65;;
73850;SDS011;62190;51.548;5.688;2023-05-07T09:34:41;11.50;;;10.28;;
73850;SDS011;62190;51.548;5.688;2023-05-07T09:37:09;12.30;;;11.00;;
73850;SDS011;62190;51.548;5.688;2023-05-07T09:39:42;14.23;;;10.72;;
73850;SDS011;62190;51.548;5.688;2023-05-07T09:42:11;14.23;;;11.83;;
73850;SDS011;62190;51.548;5.688;2023-05-07T09:44:40;13.88;;;11.93;;
73850;SDS011;62190;51.548;5.688;2023-05-07T09:47:10;12.75;;;9.75;;
73850;SDS011;62190;51.548;5.688;2023-05-07T09:49:39;15.23;;;11.18;;
73850;SDS011;62190;51.548;5.688;2023-05-07T09:52:07;11.75;;;9.70;;
73850;SDS011;62190;51.548;5.688;2023-05-07T09:54:36;12.98;;;10.48;;
73850;SDS011;62190;51.548;5.688;2023-05-07T09:57:07;13.38;;;10.95;;
73850;SDS011;62190;51.548;5.688;2023-05-07T09:59:37;13.10;;;11.03;;
73850;SDS011;62190;51.548;5.688;2023-05-07T10:02:05;12.58;;;10.95;;
73850;SDS011;62190;51.548;5.688;2023-05-07T10:04:32;12.88;;;11.20;;
73850;SDS011;62190;51.548;5.688;2023-05-07T10:07:00;13.93;;;11.05;;
73850;SDS011;62190;51.548;5.688;2023-05-07T10:09:28;14.95;;;12.03;;
73850;SDS011;62190;51.548;5.688;2023-05-07T10:11:55;14.40;;;11.43;;
73850;SDS011;62190;51.548;5.688;2023-05-07T10:14:23;13.43;;;10.30;;
73850;SDS011;62190;51.548;5.688;2023-05-07T10:16:51;11.93;;;9.45;;
73850;SDS011;62190;51.548;5.688;2023-05-07T10:19:20;11.90;;;9.60;;
73850;SDS011;62190;51.548;5.688;2023-05-07T10:21:59;12.85;;;10.20;;
73850;SDS011;62190;51.548;5.688;2023-05-07T10:24:26;11.55;;;10.00;;
73850;SDS011;62190;51.548;5.688;2023-05-07T10:26:55;13.62;;;9.73;;
73850;SDS011;62190;51.548;5.688;2023-05-07T10:31:59;10.63;;;9.33;;
73850;SDS011;62190;51.548;5.688;2023-05-07T10:34:29;11.33;;;8.95;;
73850;SDS011;62190;51.548;5.688;2023-05-07T10:36:58;10.58;;;8.40;;
73850;SDS011;62190;51.548;5.688;2023-05-07T10:39:26;10.10;;;8.85;;
73850;SDS011;62190;51.548;5.688;2023-05-07T10:41:53;10.55;;;8.73;;
73850;SDS011;62190;51.548;5.688;2023-05-07T10:44:27;9.20;;;7.65;;
73850;SDS011;62190;51.548;5.688;2023-05-07T10:47:08;9.98;;;8.55;;
73850;SDS011;62190;51.548;5.688;2023-05-07T10:50:22;9.90;;;7.95;;
73850;SDS011;62190;51.548;5.688;2023-05-07T10:52:17;10.48;;;8.35;;
73850;SDS011;62190;51.548;5.688;2023-05-07T10:54:46;10.08;;;7.70;;
73850;SDS011;62190;51.548;5.688;2023-05-07T10:57:32;10.98;;;8.38;;
73850;SDS011;62190;51.548;5.688;2023-05-07T11:00:03;10.45;;;7.50;;
73850;SDS011;62190;51.548;5.688;2023-05-07T11:05:33;8.28;;;5.58;;
73850;SDS011;62190;51.548;5.688;2023-05-07T11:08:01;10.45;;;5.87;;
73850;SDS011;62190;51.548;5.688;2023-05-07T11:13:18;7.25;;;4.35;;
73850;SDS011;62190;51.548;5.688;2023-05-07T11:16:04;6.22;;;4.70;;
73850;SDS011;62190;51.548;5.688;2023-05-07T11:24:06;7.03;;;4.15;;
73850;SDS011;62190;51.548;5.688;2023-05-07T11:26:45;8.68;;;6.22;;
73850;SDS011;62190;51.548;5.688;2023-05-07T11:29:16;6.72;;;5.17;;
73850;SDS011;62190;51.548;5.688;2023-05-07T11:31:40;6.65;;;5.08;;
73850;SDS011;62190;51.548;5.688;2023-05-07T11:34:08;8.50;;;6.45;;
73850;SDS011;62190;51.548;5.688;2023-05-07T11:36:36;9.15;;;6.37;;
73850;SDS011;62190;51.548;5.688;2023-05-07T11:39:06;9.30;;;6.17;;
73850;SDS011;62190;51.548;5.688;2023-05-07T11:41:48;8.08;;;6.70;;
73850;SDS011;62190;51.548;5.688;2023-05-07T11:44:15;8.65;;;6.35;;
73850;SDS011;62190;51.548;5.688;2023-05-07T11:46:44;9.68;;;7.45;;
73850;SDS011;62190;51.548;5.688;2023-05-07T11:49:12;9.50;;;6.58;;
73850;SDS011;62190;51.548;5.688;2023-05-07T11:51:39;8.85;;;7.28;;
73850;SDS011;62190;51.548;5.688;2023-05-07T11:54:08;9.03;;;6.80;;
73850;SDS011;62190;51.548;5.688;2023-05-07T11:56:37;9.90;;;8.75;;
73850;SDS011;62190;51.548;5.688;2023-05-07T11:59:04;10.72;;;8.73;;
73850;SDS011;62190;51.548;5.688;2023-05-07T12:01:31;8.83;;;7.92;;
73850;SDS011;62190;51.548;5.688;2023-05-07T12:04:02;10.23;;;8.25;;
73850;SDS011;62190;51.548;5.688;2023-05-07T12:06:30;10.50;;;8.13;;
73850;SDS011;62190;51.548;5.688;2023-05-07T12:08:58;10.03;;;8.85;;
73850;SDS011;62190;51.548;5.688;2023-05-07T12:11:25;10.85;;;8.23;;
73850;SDS011;62190;51.548;5.688;2023-05-07T12:13:53;11.50;;;8.38;;
73850;SDS011;62190;51.548;5.688;2023-05-07T12:16:21;9.75;;;8.75;;
73850;SDS011;62190;51.548;5.688;2023-05-07T12:18:48;10.43;;;8.30;;
73850;SDS011;62190;51.548;5.688;2023-05-07T12:21:18;10.65;;;8.68;;
73850;SDS011;62190;51.548;5.688;2023-05-07T12:23:46;9.53;;;8.50;;
73850;SDS011;62190;51.548;5.688;2023-05-07T12:26:13;10.23;;;8.85;;
73850;SDS011;62190;51.548;5.688;2023-05-07T12:28:41;11.28;;;8.40;;
73850;SDS011;62190;51.548;5.688;2023-05-07T12:31:09;9.10;;;7.72;;
73850;SDS011;62190;51.548;5.688;2023-05-07T12:33:36;12.20;;;8.43;;
73850;SDS011;62190;51.548;5.688;2023-05-07T12:36:06;10.20;;;7.83;;
73850;SDS011;62190;51.548;5.688;2023-05-07T12:38:41;10.48;;;7.95;;
73850;SDS011;62190;51.548;5.688;2023-05-07T12:41:07;11.40;;;8.28;;
73850;SDS011;62190;51.548;5.688;2023-05-07T12:43:37;11.38;;;8.55;;
73850;SDS011;62190;51.548;5.688;2023-05-07T12:46:05;10.25;;;7.90;;
73850;SDS011;62190;51.548;5.688;2023-05-07T12:48:33;13.83;;;8.33;;
73850;SDS011;62190;51.548;5.688;2023-05-07T12:51:02;9.35;;;7.22;;
73850;SDS011;62190;51.548;5.688;2023-05-07T12:53:31;10.10;;;7.62;;
73850;SDS011;62190;51.548;5.688;2023-05-07T12:55:59;11.03;;;7.55;;
73850;SDS011;62190;51.548;5.688;2023-05-07T12:58:30;12.05;;;7.30;;
73850;SDS011;62190;51.548;5.688;2023-05-07T13:01:03;11.35;;;7.83;;
73850;SDS011;62190;51.548;5.688;2023-05-07T13:03:35;11.95;;;7.60;;
73850;SDS011;62190;51.548;5.688;2023-05-07T13:06:07;9.50;;;7.53;;
73850;SDS011;62190;51.548;5.688;2023-05-07T13:11:08;9.50;;;7.40;;
73850;SDS011;62190;51.548;5.688;2023-05-07T13:13:37;9.85;;;7.03;;
73850;SDS011;62190;51.548;5.688;2023-05-07T13:16:05;10.82;;;7.00;;
73850;SDS011;62190;51.548;5.688;2023-05-07T13:18:34;9.25;;;7.28;;
73850;SDS011;62190;51.548;5.688;2023-05-07T13:21:02;5.83;;;3.83;;
73850;SDS011;62190;51.548;5.688;2023-05-07T13:23:30;4.20;;;1.77;;
73850;SDS011;62190;51.548;5.688;2023-05-07T13:25:57;3.60;;;1.52;;
73850;SDS011;62190;51.548;5.688;2023-05-07T13:28:26;3.02;;;1.70;;
73850;SDS011;62190;51.548;5.688;2023-05-07T13:30:53;4.12;;;1.10;;
73850;SDS011;62190;51.548;5.688;2023-05-07T13:33:21;3.52;;;0.85;;
73850;SDS011;62190;51.548;5.688;2023-05-07T13:35:49;3.92;;;0.60;;
73850;SDS011;62190;51.548;5.688;2023-05-07T13:38:16;6.33;;;1.47;;
73850;SDS011;62190;51.548;5.688;2023-05-07T13:40:44;1.90;;;1.15;;
73850;SDS011;62190;51.548;5.688;2023-05-07T13:43:11;3.42;;;1.77;;
73850;SDS011;62190;51.548;5.688;2023-05-07T13:45:38;5.85;;;1.92;;
73850;SDS011;62190;51.548;5.688;2023-05-07T13:48:06;6.40;;;2.83;;
73850;SDS011;62190;51.548;5.688;2023-05-07T13:50:34;8.48;;;4.00;;
73850;SDS011;62190;51.548;5.688;2023-05-07T13:53:01;10.05;;;4.33;;
73850;SDS011;62190;51.548;5.688;2023-05-07T13:55:28;7.17;;;4.60;;
73850;SDS011;62190;51.548;5.688;2023-05-07T13:58:09;15.72;;;6.00;;
73850;SDS011;62190;51.548;5.688;2023-05-07T14:00:37;16.93;;;7.30;;
73850;SDS011;62190;51.548;5.688;2023-05-07T14:03:04;10.58;;;7.00;;
73850;SDS011;62190;51.548;5.688;2023-05-07T14:05:32;11.43;;;7.15;;
73850;SDS011;62190;51.548;5.688;2023-05-07T14:08:00;11.05;;;6.42;;
73850;SDS011;62190;51.548;5.688;2023-05-07T14:10:28;12.75;;;6.83;;
73850;SDS011;62190;51.548;5.688;2023-05-07T14:12:57;13.03;;;6.33;;
73850;SDS011;62190;51.548;5.688;2023-05-07T14:15:24;11.85;;;6.53;;
73850;SDS011;62190;51.548;5.688;2023-05-07T14:17:51;18.98;;;8.03;;
73850;SDS011;62190;51.548;5.688;2023-05-07T14:20:19;12.58;;;6.83;;
73850;SDS011;62190;51.548;5.688;2023-05-07T14:22:47;10.18;;;6.78;;
73850;SDS011;62190;51.548;5.688;2023-05-07T14:25:14;9.18;;;6.45;;
73850;SDS011;62190;51.548;5.688;2023-05-07T14:27:41;11.50;;;7.37;;
73850;SDS011;62190;51.548;5.688;2023-05-07T14:30:09;10.68;;;6.95;;
73850;SDS011;62190;51.548;5.688;2023-05-07T14:32:36;13.60;;;7.08;;
73850;SDS011;62190;51.548;5.688;2023-05-07T14:35:04;12.03;;;6.87;;
73850;SDS011;62190;51.548;5.688;2023-05-07T14:37:31;15.05;;;8.00;;
73850;SDS011;62190;51.548;5.688;2023-05-07T14:39:58;12.50;;;7.70;;
73850;SDS011;62190;51.548;5.688;2023-05-07T14:42:26;11.35;;;7.53;;
73850;SDS011;62190;51.548;5.688;2023-05-07T14:44:54;13.62;;;8.78;;
73850;SDS011;62190;51.548;5.688;2023-05-07T14:47:22;13.80;;;8.58;;
73850;SDS011;62190;51.548;5.688;2023-05-07T14:49:49;15.55;;;8.68;;